createdAt,value
2019-06-08T00:00:08.201Z,22.10
2019-06-08T00:02:36.815Z,15.40
2019-06-08T00:05:06.702Z,20.30
2019-06-08T00:07:35.408Z,20.80
2019-06-08T00:10:09.285Z,17.23
2019-06-08T00:12:37.833Z,19.10
2019-06-08T00:15:09.964Z,17.33
2019-06-08T00:17:39.350Z,29.47
2019-06-08T00:20:08.442Z,34.13
2019-06-08T00:22:37.028Z,27.10
2019-06-08T00:25:06.532Z,45.50
2019-06-08T00:27:35.138Z,40.20
2019-06-08T00:30:07.637Z,43.00
2019-06-08T00:32:36.180Z,36.67
2019-06-08T00:35:07.130Z,18.90
2019-06-08T00:37:35.633Z,27.43
2019-06-08T00:40:06.320Z,24.60
2019-06-08T00:42:34.945Z,21.37
2019-06-08T00:45:05.279Z,22.20
2019-06-08T00:47:47.110Z,21.80
2019-06-08T00:50:05.936Z,16.30
2019-06-08T00:52:34.582Z,21.93
2019-06-08T00:55:03.692Z,22.23
2019-06-08T00:57:32.200Z,19.47
2019-06-08T01:00:09.690Z,23.37
2019-06-08T01:02:30.961Z,36.70
2019-06-08T01:04:59.440Z,29.03
2019-06-08T01:07:28.090Z,22.23
2019-06-08T01:09:56.701Z,23.43
2019-06-08T01:12:25.178Z,21.83
2019-06-08T01:14:53.669Z,26.30
2019-06-08T01:17:23.009Z,25.13
2019-06-08T01:19:51.593Z,20.60
2019-06-08T01:22:21.486Z,19.27
2019-06-08T01:24:50.126Z,26.13
2019-06-08T01:27:19.934Z,21.70
2019-06-08T01:29:48.658Z,22.53
2019-06-08T01:32:17.134Z,22.63
2019-06-08T01:34:45.829Z,25.70
2019-06-08T01:37:14.446Z,24.37
2019-06-08T01:39:43.035Z,21.53
2019-06-08T01:42:11.579Z,25.10
2019-06-08T01:44:40.126Z,30.30
2019-06-08T01:47:08.760Z,33.87
2019-06-08T01:49:37.306Z,26.47
2019-06-08T01:52:05.918Z,27.60
2019-06-08T01:54:34.426Z,26.80
2019-06-08T01:57:09.124Z,30.80
2019-06-08T01:59:37.809Z,37.83
2019-06-08T02:02:06.421Z,32.93
2019-06-08T02:04:35.054Z,31.13
2019-06-08T02:07:03.664Z,31.67
2019-06-08T02:09:32.748Z,28.43
2019-06-08T02:12:01.493Z,38.33
2019-06-08T02:14:31.181Z,32.23
2019-06-08T02:16:59.864Z,31.07
2019-06-08T02:19:28.436Z,37.07
2019-06-08T02:21:57.121Z,34.53
2019-06-08T02:24:27.178Z,30.53
2019-06-08T02:26:55.795Z,33.67
2019-06-08T02:29:24.408Z,34.43
2019-06-08T02:31:52.954Z,34.33
2019-06-08T02:34:21.538Z,33.77
2019-06-08T02:36:50.081Z,33.33
2019-06-08T02:39:18.626Z,31.63
2019-06-08T02:41:47.275Z,30.23
2019-06-08T02:44:15.833Z,26.37
2019-06-08T02:46:44.517Z,29.33
2019-06-08T02:49:13.226Z,41.70
2019-06-08T02:51:42.640Z,43.40
2019-06-08T02:54:12.257Z,32.67
2019-06-08T02:56:43.810Z,32.67
2019-06-08T02:59:14.830Z,36.03
2019-06-08T03:01:45.142Z,41.33
2019-06-08T03:04:16.188Z,40.57
2019-06-08T03:06:46.762Z,43.57
2019-06-08T03:09:17.044Z,43.80
2019-06-08T03:11:48.496Z,48.00
2019-06-08T03:14:19.718Z,46.67
2019-06-08T03:16:48.290Z,43.87
2019-06-08T03:19:22.196Z,43.60
2019-06-08T03:21:46.704Z,41.63
2019-06-08T03:24:15.295Z,39.83
2019-06-08T03:26:44.257Z,42.90
2019-06-08T03:29:12.929Z,46.50
2019-06-08T03:31:51.602Z,54.73
2019-06-08T03:34:11.862Z,54.77
2019-06-08T03:36:51.183Z,56.57
2019-06-08T03:39:10.838Z,59.90
2019-06-08T03:41:40.421Z,61.07
2019-06-08T03:44:09.637Z,56.57
2019-06-08T03:46:38.862Z,50.40
2019-06-08T03:49:07.877Z,55.47
2019-06-08T03:51:40.264Z,52.60
2019-06-08T03:54:06.573Z,55.17
2019-06-08T03:56:35.788Z,57.27
2019-06-08T03:59:05.283Z,59.13
2019-06-08T04:01:33.830Z,54.43
2019-06-08T04:04:02.448Z,54.40
2019-06-08T04:06:31.034Z,52.20
2019-06-08T04:08:59.590Z,57.30
2019-06-08T04:11:28.141Z,47.70
2019-06-08T04:13:56.728Z,45.07
2019-06-08T04:16:25.277Z,50.97
2019-06-08T04:18:53.822Z,54.60
2019-06-08T04:21:22.323Z,53.47
2019-06-08T04:23:50.928Z,55.03
2019-06-08T04:26:19.521Z,52.57
2019-06-08T04:28:49.665Z,57.60
2019-06-08T04:31:18.366Z,52.83
2019-06-08T04:33:46.801Z,52.33
2019-06-08T04:36:15.523Z,55.60
2019-06-08T04:38:45.735Z,47.70
2019-06-08T04:41:14.263Z,46.87
2019-06-08T04:43:43.421Z,45.80
2019-06-08T04:46:13.129Z,46.27
2019-06-08T04:48:43.146Z,45.23
2019-06-08T04:51:11.958Z,40.12
2019-06-08T04:53:40.887Z,40.00
2019-06-08T04:56:10.164Z,41.33
2019-06-08T04:58:39.899Z,42.98
2019-06-08T05:01:09.005Z,38.23
2019-06-08T05:03:39.100Z,43.90
2019-06-08T05:06:08.010Z,38.90
2019-06-08T05:08:36.484Z,41.92
2019-06-08T05:11:05.029Z,40.20
2019-06-08T05:13:33.249Z,39.23
2019-06-08T05:16:01.394Z,42.10
2019-06-08T05:18:30.014Z,44.95
2019-06-08T05:20:58.594Z,40.55
2019-06-08T05:23:26.816Z,42.03
2019-06-08T05:25:55.094Z,38.53
2019-06-08T05:28:23.757Z,37.93
2019-06-08T05:30:52.311Z,40.70
2019-06-08T05:33:20.928Z,39.35
2019-06-08T05:35:49.801Z,37.45
2019-06-08T05:38:18.358Z,37.25
2019-06-08T05:40:47.711Z,36.88
2019-06-08T05:43:16.513Z,35.80
2019-06-08T05:45:45.721Z,40.48
2019-06-08T05:48:14.393Z,38.05
2019-06-08T05:50:56.842Z,37.48
2019-06-08T05:53:13.800Z,34.38
2019-06-08T05:55:43.813Z,39.10
2019-06-08T05:58:12.468Z,31.10
2019-06-08T06:00:42.067Z,34.25
2019-06-08T06:03:10.785Z,33.38
2019-06-08T06:05:40.182Z,35.52
2019-06-08T06:08:18.446Z,34.85
2019-06-08T06:10:39.083Z,33.65
2019-06-08T06:13:07.685Z,33.83
2019-06-08T06:15:36.413Z,30.77
2019-06-08T06:18:05.111Z,32.95
2019-06-08T06:20:33.335Z,31.45
2019-06-08T06:23:01.915Z,32.58
2019-06-08T06:25:30.553Z,27.73
2019-06-08T06:27:58.841Z,35.33
2019-06-08T06:30:27.493Z,32.53
2019-06-08T06:32:56.040Z,30.48
2019-06-08T06:35:24.727Z,45.23
2019-06-08T06:37:53.369Z,32.48
2019-06-08T06:40:21.923Z,31.45
2019-06-08T06:42:50.466Z,32.35
2019-06-08T06:45:19.138Z,30.37
2019-06-08T06:47:48.451Z,32.67
2019-06-08T06:50:17.480Z,32.40
2019-06-08T06:52:46.660Z,35.23
2019-06-08T06:55:15.582Z,32.42
2019-06-08T06:57:45.083Z,34.73
2019-06-08T07:00:15.977Z,31.10
2019-06-08T07:02:45.667Z,30.45
2019-06-08T07:05:14.666Z,29.57
2019-06-08T07:07:44.134Z,30.20
2019-06-08T07:10:13.088Z,31.95
2019-06-08T07:12:41.721Z,31.17
2019-06-08T07:15:10.649Z,28.75
2019-06-08T07:17:39.209Z,29.90
2019-06-08T07:20:09.957Z,34.50
2019-06-08T07:22:38.472Z,29.60
2019-06-08T07:25:07.157Z,31.68
2019-06-08T07:27:35.748Z,28.45
2019-06-08T07:30:05.936Z,28.05
2019-06-08T07:32:34.528Z,27.77
2019-06-08T07:35:03.926Z,27.48
2019-06-08T07:37:32.777Z,30.95
2019-06-08T07:40:01.550Z,28.35
2019-06-08T07:42:30.068Z,31.35
2019-06-08T07:45:00.227Z,32.08
2019-06-08T07:47:29.080Z,23.27
2019-06-08T07:49:57.625Z,31.65
2019-06-08T07:52:26.185Z,28.87
2019-06-08T07:54:54.821Z,24.35
2019-06-08T07:57:23.433Z,27.90
2019-06-08T07:59:53.331Z,22.87
2019-06-08T08:02:22.508Z,18.80
2019-06-08T08:04:52.412Z,21.73
2019-06-08T08:07:21.145Z,20.50
2019-06-08T08:09:50.577Z,20.85
2019-06-08T08:12:19.173Z,16.23
2019-06-08T08:14:48.735Z,22.85
2019-06-08T08:17:17.398Z,27.27
2019-06-08T08:19:45.941Z,13.60
2019-06-08T08:22:25.023Z,13.90
2019-06-08T08:24:44.733Z,12.47
2019-06-08T08:27:13.356Z,11.63
2019-06-08T08:29:41.971Z,15.03
2019-06-08T08:32:10.609Z,12.00
2019-06-08T08:34:39.294Z,12.33
2019-06-08T08:37:09.611Z,10.30
2019-06-08T08:39:38.246Z,13.32
2019-06-08T08:42:08.472Z,14.00
2019-06-08T08:44:38.052Z,8.20
2019-06-08T08:47:07.667Z,8.73
2019-06-08T08:49:37.999Z,6.97
2019-06-08T08:52:11.238Z,8.88
2019-06-08T08:54:37.691Z,9.90
2019-06-08T08:57:08.396Z,7.12
2019-06-08T08:59:38.147Z,6.47
2019-06-08T09:02:11.048Z,12.28
2019-06-08T09:04:38.152Z,6.62
2019-06-08T09:07:10.334Z,8.43
2019-06-08T09:09:38.660Z,7.55
2019-06-08T09:12:08.358Z,4.22
2019-06-08T09:14:38.747Z,6.17
2019-06-08T09:17:08.591Z,6.40
2019-06-08T09:19:38.268Z,3.08
2019-06-08T09:22:08.614Z,4.25
2019-06-08T09:24:38.976Z,4.55
2019-06-08T09:27:08.184Z,6.35
2019-06-08T09:29:38.815Z,4.20
2019-06-08T09:32:08.224Z,2.42
2019-06-08T09:34:38.553Z,7.53
2019-06-08T09:37:08.281Z,7.75
2019-06-08T09:39:38.549Z,10.03
2019-06-08T09:42:08.987Z,5.65
2019-06-08T09:44:37.888Z,7.60
2019-06-08T09:47:12.142Z,4.78
2019-06-08T09:49:37.695Z,4.80
2019-06-08T09:52:08.575Z,8.50
2019-06-08T09:54:38.472Z,3.25
2019-06-08T09:57:09.136Z,3.20
2019-06-08T09:59:38.558Z,8.15
2019-06-08T10:02:12.411Z,1.98
2019-06-08T10:04:38.677Z,2.25
2019-06-08T10:07:08.842Z,4.47
2019-06-08T10:09:38.104Z,1.52
2019-06-08T10:12:09.697Z,2.20
2019-06-08T10:14:37.991Z,9.35
2019-06-08T10:17:08.985Z,5.37
2019-06-08T10:19:37.179Z,9.10
2019-06-08T10:22:08.384Z,9.53
2019-06-08T10:24:41.187Z,5.25
2019-06-08T10:27:08.631Z,2.30
2019-06-08T10:29:38.299Z,6.92
2019-06-08T10:32:08.932Z,2.35
2019-06-08T10:34:38.808Z,2.72
2019-06-08T10:37:12.754Z,2.90
2019-06-08T10:39:38.293Z,2.92
2019-06-08T10:42:09.796Z,7.20
2019-06-08T10:44:38.212Z,3.75
2019-06-08T10:47:09.998Z,9.68
2019-06-08T10:49:38.416Z,2.20
2019-06-08T10:52:10.633Z,1.82
2019-06-08T10:54:37.879Z,3.72
2019-06-08T10:57:07.727Z,2.45
2019-06-08T10:59:40.063Z,3.05
2019-06-08T11:02:13.287Z,3.25
2019-06-08T11:04:38.863Z,3.22
2019-06-08T11:07:13.204Z,5.87
2019-06-08T11:09:38.172Z,12.78
2019-06-08T11:12:11.145Z,4.65
2019-06-08T11:14:38.269Z,11.15
2019-06-08T11:17:09.960Z,4.47
2019-06-08T11:19:38.040Z,11.93
2019-06-08T11:22:12.165Z,4.78
2019-06-08T11:24:38.749Z,5.40
2019-06-08T11:27:10.586Z,6.15
2019-06-08T11:29:38.316Z,5.58
2019-06-08T11:32:10.890Z,4.20
2019-06-08T11:34:37.867Z,5.58
2019-06-08T11:37:09.856Z,4.65
2019-06-08T11:39:38.180Z,5.60
2019-06-08T11:42:09.795Z,11.68
2019-06-08T11:44:39.057Z,8.88
2019-06-08T11:47:12.297Z,6.65
2019-06-08T11:49:38.161Z,6.78
2019-06-08T11:52:06.959Z,3.95
2019-06-08T11:54:38.027Z,3.10
2019-06-08T11:57:08.351Z,2.72
2019-06-08T11:59:37.596Z,4.10
2019-06-08T12:02:09.039Z,4.70
2019-06-08T12:04:38.426Z,3.70
2019-06-08T12:07:09.123Z,5.08
2019-06-08T12:09:37.053Z,1.90
2019-06-08T12:12:09.026Z,5.67
2019-06-08T12:14:37.605Z,3.08
2019-06-08T12:17:08.914Z,2.98
2019-06-08T12:19:37.762Z,5.28
2019-06-08T12:22:08.756Z,3.62
2019-06-08T12:24:42.053Z,6.92
2019-06-08T12:27:19.033Z,2.58
2019-06-08T12:29:37.621Z,6.05
2019-06-08T12:32:08.871Z,6.35
2019-06-08T12:34:38.355Z,5.37
2019-06-08T12:37:10.251Z,7.22
2019-06-08T12:39:38.743Z,5.40
2019-06-08T12:42:09.532Z,7.67
2019-06-08T12:44:38.434Z,11.35
2019-06-08T12:47:10.699Z,7.65
2019-06-08T12:49:39.930Z,3.45
2019-06-08T12:52:09.888Z,3.60
2019-06-08T12:54:38.040Z,3.90
2019-06-08T12:57:10.167Z,8.80
2019-06-08T12:59:38.532Z,7.37
2019-06-08T13:02:12.888Z,11.08
2019-06-08T13:04:39.397Z,4.37
2019-06-08T13:07:09.734Z,5.15
2019-06-08T13:09:38.508Z,1.82
2019-06-08T13:12:08.043Z,6.10
2019-06-08T13:14:38.540Z,3.98
2019-06-08T13:17:08.661Z,2.92
2019-06-08T13:19:38.691Z,2.77
2019-06-08T13:22:08.988Z,4.00
2019-06-08T13:24:37.933Z,10.63
2019-06-08T13:27:10.364Z,13.83
2019-06-08T13:29:37.703Z,7.60
2019-06-08T13:32:07.814Z,2.72
2019-06-08T13:34:38.660Z,4.83
2019-06-08T13:37:08.351Z,4.42
2019-06-08T13:39:38.811Z,3.85
2019-06-08T13:42:07.825Z,5.08
2019-06-08T13:44:37.802Z,3.15
2019-06-08T13:47:07.727Z,4.58
2019-06-08T13:49:37.704Z,6.05
2019-06-08T13:52:07.941Z,7.33
2019-06-08T13:54:38.165Z,5.85
2019-06-08T13:57:08.555Z,3.67
2019-06-08T13:59:39.000Z,5.37
2019-06-08T14:02:07.584Z,3.60
2019-06-08T14:04:39.418Z,2.77
2019-06-08T14:07:07.761Z,4.92
2019-06-08T14:09:38.273Z,5.42
2019-06-08T14:12:07.722Z,5.25
2019-06-08T14:14:39.639Z,6.03
2019-06-08T14:17:08.508Z,1.85
2019-06-08T14:19:38.544Z,3.47
2019-06-08T14:22:10.432Z,4.85
2019-06-08T14:24:37.833Z,2.70
2019-06-08T14:27:08.256Z,3.40
2019-06-08T14:29:37.169Z,2.98
2019-06-08T14:32:07.851Z,4.15
2019-06-08T14:34:38.475Z,5.10
2019-06-08T14:37:08.488Z,5.67
2019-06-08T14:39:36.685Z,5.40
2019-06-08T14:42:08.310Z,3.52
2019-06-08T14:44:37.918Z,2.83
2019-06-08T14:47:15.112Z,5.20
2019-06-08T14:49:45.372Z,3.77
2019-06-08T14:52:14.046Z,4.55
2019-06-08T14:54:43.698Z,3.83
2019-06-08T14:57:12.301Z,4.35
2019-06-08T14:59:40.907Z,4.15
2019-06-08T15:02:09.640Z,5.75
2019-06-08T15:04:39.989Z,2.98
2019-06-08T15:07:09.544Z,3.75
2019-06-08T15:09:38.497Z,6.22
2019-06-08T15:12:09.384Z,4.30
2019-06-08T15:14:38.423Z,5.03
2019-06-08T15:17:08.577Z,4.03
2019-06-08T15:19:37.334Z,10.00
2019-06-08T15:22:05.996Z,5.53
2019-06-08T15:24:37.984Z,5.10
2019-06-08T15:27:07.891Z,8.70
2019-06-08T15:29:37.821Z,10.32
2019-06-08T15:32:08.095Z,5.72
2019-06-08T15:34:38.264Z,14.20
2019-06-08T15:37:09.213Z,3.95
2019-06-08T15:39:38.755Z,3.42
2019-06-08T15:42:08.338Z,7.33
2019-06-08T15:44:38.312Z,5.15
2019-06-08T15:47:08.185Z,7.87
2019-06-08T15:49:39.087Z,9.08
2019-06-08T15:52:07.762Z,6.78
2019-06-08T15:54:40.465Z,6.40
2019-06-08T15:57:06.665Z,8.73
2019-06-08T15:59:39.032Z,8.70
2019-06-08T16:02:05.557Z,9.20
2019-06-08T16:04:34.160Z,9.58
2019-06-08T16:07:02.794Z,2.92
2019-06-08T16:09:32.099Z,8.05
2019-06-08T16:12:00.821Z,8.00
2019-06-08T16:14:30.930Z,5.58
2019-06-08T16:16:59.583Z,7.92
2019-06-08T16:19:29.375Z,9.98
2019-06-08T16:21:58.453Z,8.83
2019-06-08T16:24:27.764Z,5.35
2019-06-08T16:26:56.281Z,4.75
2019-06-08T16:29:24.862Z,5.00
2019-06-08T16:31:53.404Z,5.10
2019-06-08T16:34:22.033Z,7.95
2019-06-08T16:36:50.697Z,5.20
2019-06-08T16:39:19.321Z,5.40
2019-06-08T16:41:47.881Z,5.10
2019-06-08T16:44:16.592Z,9.35
2019-06-08T16:46:45.061Z,9.45
2019-06-08T16:49:13.669Z,2.55
2019-06-08T16:51:42.426Z,3.83
2019-06-08T16:54:10.982Z,4.78
2019-06-08T16:56:40.283Z,4.37
2019-06-08T16:59:11.657Z,9.15
2019-06-08T17:01:40.139Z,9.73
2019-06-08T17:04:08.868Z,6.20
2019-06-08T17:06:37.424Z,5.53
2019-06-08T17:09:07.740Z,4.00
2019-06-08T17:11:36.419Z,4.33
2019-06-08T17:14:05.826Z,6.40
2019-06-08T17:16:34.520Z,6.70
2019-06-08T17:19:03.190Z,4.12
2019-06-08T17:21:32.232Z,9.70
2019-06-08T17:24:00.824Z,6.62
2019-06-08T17:26:30.520Z,9.90
2019-06-08T17:28:59.326Z,3.50
2019-06-08T17:31:27.869Z,10.15
2019-06-08T17:33:56.417Z,10.32
2019-06-08T17:36:25.014Z,4.78
2019-06-08T17:38:53.554Z,16.93
2019-06-08T17:41:22.174Z,11.60
2019-06-08T17:43:50.762Z,5.58
2019-06-08T17:46:19.300Z,15.43
2019-06-08T17:48:47.768Z,5.42
2019-06-08T17:51:16.281Z,11.05
2019-06-08T17:53:44.871Z,12.47
2019-06-08T17:56:13.400Z,7.80
2019-06-08T17:58:43.372Z,18.02
2019-06-08T18:01:12.197Z,8.30
2019-06-08T18:03:41.443Z,5.92
2019-06-08T18:06:10.965Z,10.70
2019-06-08T18:08:41.969Z,7.20
2019-06-08T18:11:09.999Z,3.52
2019-06-08T18:13:40.781Z,11.43
2019-06-08T18:16:08.901Z,8.30
2019-06-08T18:18:39.287Z,6.53
2019-06-08T18:21:08.184Z,12.80
2019-06-08T18:23:39.980Z,7.37
2019-06-08T18:26:07.725Z,9.33
2019-06-08T18:28:37.133Z,8.70
2019-06-08T18:31:07.513Z,5.50
2019-06-08T18:33:39.889Z,11.60
2019-06-08T18:36:07.624Z,7.72
2019-06-08T18:38:39.760Z,6.85
2019-06-08T18:41:08.218Z,4.87
2019-06-08T18:43:39.603Z,13.98
2019-06-08T18:46:07.345Z,10.48
2019-06-08T18:48:38.531Z,9.48
2019-06-08T18:51:08.318Z,9.70
2019-06-08T18:53:55.904Z,6.62
2019-06-08T18:56:08.175Z,10.00
2019-06-08T18:58:37.731Z,9.50
2019-06-08T19:01:08.461Z,8.20
2019-06-08T19:03:40.313Z,7.70
2019-06-08T19:06:10.171Z,13.40
2019-06-08T19:08:40.922Z,4.70
2019-06-08T19:11:09.783Z,4.90
2019-06-08T19:13:39.245Z,9.53
2019-06-08T19:16:07.962Z,6.93
2019-06-08T19:18:40.675Z,12.53
2019-06-08T19:21:07.740Z,15.83
2019-06-08T19:23:38.987Z,26.30
2019-06-08T19:26:07.732Z,19.57
2019-06-08T19:28:40.922Z,37.03
2019-06-08T19:31:09.862Z,38.83
2019-06-08T19:33:37.277Z,42.87
2019-06-08T19:36:07.760Z,44.20
2019-06-08T19:38:38.465Z,63.77
2019-06-08T19:41:08.124Z,85.63
2019-06-08T19:43:39.956Z,89.30
2019-06-08T19:46:07.457Z,78.80
2019-06-08T19:48:38.612Z,77.53
2019-06-08T19:51:07.656Z,73.50
2019-06-08T19:53:41.615Z,78.97
2019-06-08T19:56:07.857Z,76.50
2019-06-08T19:58:50.582Z,91.63
2019-06-08T20:01:07.429Z,57.17
2019-06-08T20:03:37.855Z,59.00
2019-06-08T20:06:06.702Z,59.20
2019-06-08T20:08:37.393Z,39.07
2019-06-08T20:11:08.106Z,46.67
2019-06-08T20:13:37.547Z,34.60
2019-06-08T20:16:08.363Z,30.33
2019-06-08T20:18:37.541Z,40.43
2019-06-08T20:21:10.021Z,35.07
2019-06-08T20:23:38.287Z,49.30
2019-06-08T20:26:08.368Z,54.63
2019-06-08T20:28:37.392Z,53.73
2019-06-08T20:31:07.462Z,49.53
2019-06-08T20:33:37.925Z,47.83
2019-06-08T20:36:08.323Z,49.33
2019-06-08T20:38:41.488Z,45.57
2019-06-08T20:41:07.659Z,47.20
2019-06-08T20:43:38.187Z,41.93
2019-06-08T20:46:08.167Z,39.10
2019-06-08T20:48:37.755Z,53.20
2019-06-08T20:51:07.830Z,42.93
2019-06-08T20:53:38.720Z,48.50
2019-06-08T20:56:07.951Z,33.63
2019-06-08T20:58:37.217Z,32.93
2019-06-08T21:01:07.356Z,22.63
2019-06-08T21:03:36.112Z,26.47
2019-06-08T21:06:04.796Z,22.90
2019-06-08T21:08:33.273Z,16.90
2019-06-08T21:11:01.834Z,20.10
2019-06-08T21:13:30.645Z,21.63
2019-06-08T21:16:00.675Z,17.53
2019-06-08T21:18:29.607Z,16.00
2019-06-08T21:20:58.256Z,19.53
2019-06-08T21:23:28.135Z,22.33
2019-06-08T21:26:00.082Z,26.63
2019-06-08T21:28:28.093Z,23.23
2019-06-08T21:31:01.930Z,10.07
2019-06-08T21:33:27.504Z,15.57
2019-06-08T21:36:03.790Z,10.30
2019-06-08T21:38:28.213Z,14.83
2019-06-08T21:41:00.873Z,9.90
2019-06-08T21:43:27.905Z,10.30
2019-06-08T21:45:59.451Z,29.67
2019-06-08T21:48:29.457Z,24.97
2019-06-08T21:51:01.381Z,12.93
2019-06-08T21:53:28.363Z,17.53
2019-06-08T21:55:58.312Z,10.93
2019-06-08T21:58:27.066Z,9.13
2019-06-08T22:00:59.407Z,19.00
2019-06-08T22:03:28.159Z,14.43
2019-06-08T22:05:58.869Z,15.37
2019-06-08T22:08:27.385Z,9.47
2019-06-08T22:10:58.973Z,11.90
2019-06-08T22:13:28.251Z,16.73
2019-06-08T22:15:59.825Z,12.67
2019-06-08T22:18:27.363Z,22.47
2019-06-08T22:20:59.426Z,29.10
2019-06-08T22:23:26.382Z,32.50
2019-06-08T22:28:52.550Z,28.60
2019-06-08T22:31:23.226Z,22.50
2019-06-08T22:33:53.034Z,16.60
2019-06-08T22:36:22.177Z,19.40
2019-06-08T22:38:50.653Z,20.17
2019-06-08T22:41:19.130Z,30.20
2019-06-08T22:43:48.204Z,20.83
2019-06-08T22:46:17.866Z,25.53
2019-06-08T22:48:47.781Z,33.00
2019-06-08T22:51:18.740Z,30.90
2019-06-08T22:53:47.802Z,34.40
2019-06-08T22:56:18.379Z,35.77
2019-06-08T22:58:47.981Z,26.67
2019-06-08T23:01:18.388Z,27.80
2019-06-08T23:03:47.654Z,33.07
2019-06-08T23:06:17.660Z,36.43
2019-06-08T23:08:48.054Z,44.80
2019-06-08T23:11:17.988Z,25.97
2019-06-08T23:13:47.166Z,23.40
2019-06-08T23:16:17.996Z,27.17
2019-06-08T23:18:47.782Z,32.57
2019-06-08T23:21:18.029Z,28.60
2019-06-08T23:23:47.760Z,30.97
2019-06-08T23:26:18.304Z,33.13
2019-06-08T23:28:47.314Z,32.13
2019-06-08T23:31:24.291Z,29.13
2019-06-08T23:33:48.314Z,28.83
2019-06-08T23:36:44.957Z,27.37
2019-06-08T23:38:48.101Z,27.03
2019-06-08T23:41:17.744Z,26.57
2019-06-08T23:43:47.897Z,22.70
2019-06-08T23:46:17.905Z,28.87
2019-06-08T23:48:48.137Z,24.43
2019-06-08T23:51:17.905Z,25.77
2019-06-08T23:53:47.805Z,25.67
2019-06-08T23:56:18.124Z,22.77
2019-06-08T23:58:47.994Z,27.97
